sensor_id;sensor_type;location;lat;lon;timestamp;pressure;altitude;pressure_sealevel;temperature;humidity
9740;BME280;4909;42.680;26.324;2022-11-18T00:01:34;97565.28;;;13.05;100.00
9740;BME280;4909;42.680;26.324;2022-11-18T00:04:01;97568.28;;;13.13;100.00
9740;BME280;4909;42.680;26.324;2022-11-18T00:06:29;97566.25;;;13.17;100.00
9740;BME280;4909;42.680;26.324;2022-11-18T00:08:57;97564.66;;;13.14;100.00
9740;BME280;4909;42.680;26.324;2022-11-18T00:11:25;97568.94;;;13.17;100.00
9740;BME280;4909;42.680;26.324;2022-11-18T00:14:11;97563.47;;;13.18;100.00
9740;BME280;4909;42.680;26.324;2022-11-18T00:16:47;97557.63;;;13.13;100.00
9740;BME280;4909;42.680;26.324;2022-11-18T00:19:15;97557.81;;;13.10;100.00
9740;BME280;4909;42.680;26.324;2022-11-18T00:21:42;97562.94;;;13.13;100.00
9740;BME280;4909;42.680;26.324;2022-11-18T00:24:09;97570.94;;;13.13;100.00
9740;BME280;4909;42.680;26.324;2022-11-18T00:26:36;97569.53;;;13.07;100.00
9740;BME280;4909;42.680;26.324;2022-11-18T00:29:03;97569.97;;;13.01;100.00
9740;BME280;4909;42.680;26.324;2022-11-18T00:31:30;97564.94;;;13.10;100.00
9740;BME280;4909;42.680;26.324;2022-11-18T00:33:58;97562.94;;;13.13;100.00
9740;BME280;4909;42.680;26.324;2022-11-18T00:36:25;97567.41;;;13.13;100.00
9740;BME280;4909;42.680;26.324;2022-11-18T00:38:51;97567.09;;;13.17;99.80
9740;BME280;4909;42.680;26.324;2022-11-18T00:41:19;97566.56;;;13.12;99.63
9740;BME280;4909;42.680;26.324;2022-11-18T00:43:46;97566.25;;;13.17;99.76
9740;BME280;4909;42.680;26.324;2022-11-18T00:46:12;97563.91;;;13.12;99.46
9740;BME280;4909;42.680;26.324;2022-11-18T00:48:39;97558.25;;;13.04;100.00
9740;BME280;4909;42.680;26.324;2022-11-18T00:51:10;97560.91;;;13.04;100.00
9740;BME280;4909;42.680;26.324;2022-11-18T00:53:38;97556.59;;;12.78;100.00
9740;BME280;4909;42.680;26.324;2022-11-18T00:56:05;97554.56;;;12.69;100.00
9740;BME280;4909;42.680;26.324;2022-11-18T00:58:32;97559.34;;;12.63;100.00
9740;BME280;4909;42.680;26.324;2022-11-18T01:00:59;97546.25;;;12.73;100.00
9740;BME280;4909;42.680;26.324;2022-11-18T01:03:27;97554.03;;;12.76;100.00
9740;BME280;4909;42.680;26.324;2022-11-18T01:05:54;97543.81;;;12.83;100.00
9740;BME280;4909;42.680;26.324;2022-11-18T01:08:22;97550.41;;;12.77;100.00
9740;BME280;4909;42.680;26.324;2022-11-18T01:10:50;97548.47;;;12.79;100.00
9740;BME280;4909;42.680;26.324;2022-11-18T01:13:19;97543.34;;;12.89;100.00
9740;BME280;4909;42.680;26.324;2022-11-18T01:15:46;97544.84;;;12.93;100.00
9740;BME280;4909;42.680;26.324;2022-11-18T01:18:14;97541.97;;;12.96;99.28
9740;BME280;4909;42.680;26.324;2022-11-18T01:20:41;97547.28;;;12.96;99.23
9740;BME280;4909;42.680;26.324;2022-11-18T01:23:08;97556.25;;;12.95;99.26
9740;BME280;4909;42.680;26.324;2022-11-18T01:25:37;97565.94;;;12.96;98.19
9740;BME280;4909;42.680;26.324;2022-11-18T01:28:04;97578.72;;;12.78;96.41
9740;BME280;4909;42.680;26.324;2022-11-18T01:30:32;97591.94;;;12.67;97.49
9740;BME280;4909;42.680;26.324;2022-11-18T01:33:00;97588.94;;;11.67;98.79
9740;BME280;4909;42.680;26.324;2022-11-18T01:35:28;97601.53;;;11.51;99.96
9740;BME280;4909;42.680;26.324;2022-11-18T01:37:54;97592.91;;;10.93;100.00
9740;BME280;4909;42.680;26.324;2022-11-18T01:40:21;97595.28;;;10.69;100.00
9740;BME280;4909;42.680;26.324;2022-11-18T01:42:49;97601.59;;;10.52;100.00
9740;BME280;4909;42.680;26.324;2022-11-18T01:45:25;97589.47;;;10.48;100.00
9740;BME280;4909;42.680;26.324;2022-11-18T01:47:58;97580.72;;;10.46;100.00
9740;BME280;4909;42.680;26.324;2022-11-18T01:50:26;97578.94;;;10.46;100.00
9740;BME280;4909;42.680;26.324;2022-11-18T01:52:57;97581.31;;;10.65;100.00
9740;BME280;4909;42.680;26.324;2022-11-18T01:55:28;97580.19;;;10.69;100.00
9740;BME280;4909;42.680;26.324;2022-11-18T01:58:02;97584.66;;;10.69;100.00
9740;BME280;4909;42.680;26.324;2022-11-18T02:00:31;97570.72;;;10.79;100.00
9740;BME280;4909;42.680;26.324;2022-11-18T02:02:59;97573.38;;;10.79;100.00
9740;BME280;4909;42.680;26.324;2022-11-18T02:05:27;97579.16;;;10.72;100.00
9740;BME280;4909;42.680;26.324;2022-11-18T02:07:54;97579.91;;;10.88;100.00
9740;BME280;4909;42.680;26.324;2022-11-18T02:10:23;97577.03;;;11.05;100.00
9740;BME280;4909;42.680;26.324;2022-11-18T02:12:51;97585.22;;;11.02;100.00
9740;BME280;4909;42.680;26.324;2022-11-18T02:15:25;97589.75;;;11.00;100.00
9740;BME280;4909;42.680;26.324;2022-11-18T02:18:00;97583.13;;;10.93;100.00
9740;BME280;4909;42.680;26.324;2022-11-18T02:20:34;97581.06;;;10.84;100.00
9740;BME280;4909;42.680;26.324;2022-11-18T02:29:11;97586.06;;;11.03;100.00
9740;BME280;4909;42.680;26.324;2022-11-18T02:31:45;97585.78;;;10.93;100.00
9740;BME280;4909;42.680;26.324;2022-11-18T02:34:19;97585.78;;;11.07;100.00
9740;BME280;4909;42.680;26.324;2022-11-18T02:36:51;97584.72;;;10.96;100.00
9740;BME280;4909;42.680;26.324;2022-11-18T02:39:23;97577.69;;;10.95;100.00
9740;BME280;4909;42.680;26.324;2022-11-18T02:41:56;97577.81;;;11.07;100.00
9740;BME280;4909;42.680;26.324;2022-11-18T02:44:28;97577.81;;;11.07;100.00
9740;BME280;4909;42.680;26.324;2022-11-18T02:47:00;97569.44;;;10.99;100.00
9740;BME280;4909;42.680;26.324;2022-11-18T02:49:33;97579.91;;;11.02;100.00
9740;BME280;4909;42.680;26.324;2022-11-18T02:52:03;97577.81;;;11.07;100.00
9740;BME280;4909;42.680;26.324;2022-11-18T02:54:31;97573.72;;;11.16;100.00
9740;BME280;4909;42.680;26.324;2022-11-18T02:57:01;97581.47;;;11.19;100.00
9740;BME280;4909;42.680;26.324;2022-11-18T02:59:29;97583.00;;;11.23;100.00
9740;BME280;4909;42.680;26.324;2022-11-18T03:01:57;97579.53;;;11.35;100.00
9740;BME280;4909;42.680;26.324;2022-11-18T03:04:24;97573.16;;;11.38;100.00
9740;BME280;4909;42.680;26.324;2022-11-18T03:06:58;97578.78;;;11.47;100.00
9740;BME280;4909;42.680;26.324;2022-11-18T03:09:29;97568.03;;;11.49;100.00
9740;BME280;4909;42.680;26.324;2022-11-18T03:12:09;97576.16;;;11.60;100.00
9740;BME280;4909;42.680;26.324;2022-11-18T03:14:43;97575.13;;;11.48;100.00
9740;BME280;4909;42.680;26.324;2022-11-18T03:17:15;97575.44;;;11.44;100.00
9740;BME280;4909;42.680;26.324;2022-11-18T03:20:00;97576.25;;;11.58;100.00
9740;BME280;4909;42.680;26.324;2022-11-18T03:22:32;97570.00;;;11.59;100.00
9740;BME280;4909;42.680;26.324;2022-11-18T03:25:06;97567.38;;;11.72;100.00
9740;BME280;4909;42.680;26.324;2022-11-18T03:27:37;97580.28;;;11.78;100.00
9740;BME280;4909;42.680;26.324;2022-11-18T03:30:10;97580.78;;;11.70;100.00
9740;BME280;4909;42.680;26.324;2022-11-18T03:32:41;97578.22;;;11.42;100.00
9740;BME280;4909;42.680;26.324;2022-11-18T03:35:12;97583.38;;;11.58;100.00
9740;BME280;4909;42.680;26.324;2022-11-18T03:37:41;97585.94;;;11.59;100.00
9740;BME280;4909;42.680;26.324;2022-11-18T03:40:14;97580.81;;;11.56;100.00
9740;BME280;4909;42.680;26.324;2022-11-18T03:42:45;97578.88;;;11.46;100.00
9740;BME280;4909;42.680;26.324;2022-11-18T03:45:18;97577.06;;;11.46;100.00
9740;BME280;4909;42.680;26.324;2022-11-18T03:47:50;97560.31;;;11.58;100.00
9740;BME280;4909;42.680;26.324;2022-11-18T03:50:23;97585.31;;;11.68;100.00
9740;BME280;4909;42.680;26.324;2022-11-18T03:52:52;97583.91;;;11.77;100.00
9740;BME280;4909;42.680;26.324;2022-11-18T03:55:23;97593.03;;;11.73;100.00
9740;BME280;4909;42.680;26.324;2022-11-18T03:57:55;97564.50;;;11.48;100.00
9740;BME280;4909;42.680;26.324;2022-11-18T04:00:28;97591.41;;;11.70;100.00
9740;BME280;4909;42.680;26.324;2022-11-18T04:02:58;97587.09;;;11.55;100.00
9740;BME280;4909;42.680;26.324;2022-11-18T04:05:25;97588.88;;;11.55;100.00
9740;BME280;4909;42.680;26.324;2022-11-18T04:07:55;97592.19;;;11.58;100.00
9740;BME280;4909;42.680;26.324;2022-11-18T04:10:26;97595.63;;;11.60;100.00
9740;BME280;4909;42.680;26.324;2022-11-18T04:13:00;97587.19;;;11.54;100.00
9740;BME280;4909;42.680;26.324;2022-11-18T04:15:31;97567.97;;;11.36;100.00
9740;BME280;4909;42.680;26.324;2022-11-18T04:17:58;97579.53;;;11.35;100.00
9740;BME280;4909;42.680;26.324;2022-11-18T04:20:25;97580.69;;;11.31;100.00
9740;BME280;4909;42.680;26.324;2022-11-18T04:22:52;97591.94;;;11.49;100.00
9740;BME280;4909;42.680;26.324;2022-11-18T04:25:19;97576.00;;;11.49;100.00
9740;BME280;4909;42.680;26.324;2022-11-18T04:27:46;97596.59;;;11.45;100.00
9740;BME280;4909;42.680;26.324;2022-11-18T04:30:13;97594.59;;;11.49;100.00
9740;BME280;4909;42.680;26.324;2022-11-18T04:32:41;97594.41;;;11.38;100.00
9740;BME280;4909;42.680;26.324;2022-11-18T04:35:08;97598.63;;;11.42;100.00
9740;BME280;4909;42.680;26.324;2022-11-18T04:37:34;97604.38;;;11.48;100.00
9740;BME280;4909;42.680;26.324;2022-11-18T04:40:02;97599.75;;;11.23;100.00
9740;BME280;4909;42.680;26.324;2022-11-18T04:42:29;97592.97;;;11.05;100.00
9740;BME280;4909;42.680;26.324;2022-11-18T04:44:56;97598.47;;;11.02;100.00
9740;BME280;4909;42.680;26.324;2022-11-18T04:47:22;97604.44;;;11.20;100.00
9740;BME280;4909;42.680;26.324;2022-11-18T04:49:50;97610.28;;;11.39;100.00
9740;BME280;4909;42.680;26.324;2022-11-18T04:52:17;97609.41;;;11.39;100.00
9740;BME280;4909;42.680;26.324;2022-11-18T04:54:44;97606.19;;;11.33;100.00
9740;BME280;4909;42.680;26.324;2022-11-18T04:57:11;97607.69;;;11.38;100.00
9740;BME280;4909;42.680;26.324;2022-11-18T04:59:38;97613.00;;;11.38;100.00
9740;BME280;4909;42.680;26.324;2022-11-18T05:02:04;97618.81;;;11.44;100.00
9740;BME280;4909;42.680;26.324;2022-11-18T05:04:33;97615.59;;;11.39;100.00
9740;BME280;4909;42.680;26.324;2022-11-18T05:07:03;97623.38;;;11.42;100.00
9740;BME280;4909;42.680;26.324;2022-11-18T05:09:30;97614.34;;;11.45;100.00
9740;BME280;4909;42.680;26.324;2022-11-18T05:11:57;97610.91;;;11.43;100.00
9740;BME280;4909;42.680;26.324;2022-11-18T05:14:41;97608.50;;;11.25;100.00
9740;BME280;4909;42.680;26.324;2022-11-18T05:17:25;97604.03;;;11.26;100.00
9740;BME280;4909;42.680;26.324;2022-11-18T05:19:52;97608.78;;;11.35;100.00
9740;BME280;4909;42.680;26.324;2022-11-18T05:22:20;97585.16;;;11.30;100.00
9740;BME280;4909;42.680;26.324;2022-11-18T05:24:47;97609.59;;;11.50;100.00
9740;BME280;4909;42.680;26.324;2022-11-18T05:27:14;97605.31;;;11.61;100.00
9740;BME280;4909;42.680;26.324;2022-11-18T05:29:42;97607.19;;;11.59;100.00
9740;BME280;4909;42.680;26.324;2022-11-18T05:32:09;97606.72;;;11.53;100.00
9740;BME280;4909;42.680;26.324;2022-11-18T05:34:35;97611.56;;;11.60;100.00
9740;BME280;4909;42.680;26.324;2022-11-18T05:37:02;97613.81;;;11.66;100.00
9740;BME280;4909;42.680;26.324;2022-11-18T05:39:31;97618.66;;;11.74;100.00
9740;BME280;4909;42.680;26.324;2022-11-18T05:41:58;97611.03;;;11.82;100.00
9740;BME280;4909;42.680;26.324;2022-11-18T05:44:42;97614.06;;;11.90;100.00
9740;BME280;4909;42.680;26.324;2022-11-18T05:47:09;97623.97;;;12.01;99.24
9740;BME280;4909;42.680;26.324;2022-11-18T05:49:36;97621.22;;;12.02;98.70
9740;BME280;4909;42.680;26.324;2022-11-18T05:52:03;97613.78;;;12.07;98.55
9740;BME280;4909;42.680;26.324;2022-11-18T05:54:31;97617.44;;;11.92;99.31
9740;BME280;4909;42.680;26.324;2022-11-18T05:56:58;97622.22;;;11.87;99.99
9740;BME280;4909;42.680;26.324;2022-11-18T05:59:25;97631.69;;;11.91;100.00
9740;BME280;4909;42.680;26.324;2022-11-18T06:01:54;97633.38;;;11.80;100.00
9740;BME280;4909;42.680;26.324;2022-11-18T06:04:26;97625.78;;;12.00;100.00
9740;BME280;4909;42.680;26.324;2022-11-18T06:06:58;97633.34;;;12.06;100.00
9740;BME280;4909;42.680;26.324;2022-11-18T06:09:34;97630.00;;;12.30;99.55
9740;BME280;4909;42.680;26.324;2022-11-18T06:12:03;97633.78;;;12.52;98.37
9740;BME280;4909;42.680;26.324;2022-11-18T06:14:34;97630.91;;;12.81;97.26
9740;BME280;4909;42.680;26.324;2022-11-18T06:17:06;97634.53;;;13.18;94.28
9740;BME280;4909;42.680;26.324;2022-11-18T06:19:34;97634.94;;;13.37;92.76
9740;BME280;4909;42.680;26.324;2022-11-18T06:22:02;97640.47;;;13.46;92.28
9740;BME280;4909;42.680;26.324;2022-11-18T06:24:31;97641.66;;;13.79;90.98
9740;BME280;4909;42.680;26.324;2022-11-18T06:26:58;97639.09;;;14.01;90.23
9740;BME280;4909;42.680;26.324;2022-11-18T06:29:25;97633.84;;;14.12;89.34
9740;BME280;4909;42.680;26.324;2022-11-18T06:31:52;97631.31;;;14.46;88.33
9740;BME280;4909;42.680;26.324;2022-11-18T06:34:19;97627.34;;;14.62;87.58
9740;BME280;4909;42.680;26.324;2022-11-18T06:36:46;97626.66;;;14.83;86.68
9740;BME280;4909;42.680;26.324;2022-11-18T06:39:12;97629.25;;;14.95;85.88
9740;BME280;4909;42.680;26.324;2022-11-18T06:41:40;97627.91;;;15.01;84.18
9740;BME280;4909;42.680;26.324;2022-11-18T06:44:10;97623.66;;;15.20;83.33
9740;BME280;4909;42.680;26.324;2022-11-18T06:46:37;97628.41;;;15.50;83.31
9740;BME280;4909;42.680;26.324;2022-11-18T06:49:22;97631.09;;;15.73;82.19
9740;BME280;4909;42.680;26.324;2022-11-18T06:51:49;97619.25;;;15.97;81.12
9740;BME280;4909;42.680;26.324;2022-11-18T06:54:16;97606.63;;;16.20;80.72
9740;BME280;4909;42.680;26.324;2022-11-18T06:56:44;97629.81;;;16.51;79.03
9740;BME280;4909;42.680;26.324;2022-11-18T06:59:11;97624.84;;;16.79;78.39
9740;BME280;4909;42.680;26.324;2022-11-18T07:01:39;97628.72;;;17.16;76.49
9740;BME280;4909;42.680;26.324;2022-11-18T07:04:06;97637.16;;;17.72;73.70
9740;BME280;4909;42.680;26.324;2022-11-18T07:06:34;97639.44;;;18.55;70.73
9740;BME280;4909;42.680;26.324;2022-11-18T07:09:03;97640.06;;;19.62;66.66
9740;BME280;4909;42.680;26.324;2022-11-18T07:11:30;97627.50;;;20.25;64.50
9740;BME280;4909;42.680;26.324;2022-11-18T07:13:58;97628.75;;;20.83;62.07
9740;BME280;4909;42.680;26.324;2022-11-18T07:16:26;97628.09;;;21.59;59.64
9740;BME280;4909;42.680;26.324;2022-11-18T07:18:54;97620.28;;;22.56;56.34
9740;BME280;4909;42.680;26.324;2022-11-18T07:21:22;97618.38;;;23.54;53.82
9740;BME280;4909;42.680;26.324;2022-11-18T07:23:50;97622.75;;;24.10;52.09
9740;BME280;4909;42.680;26.324;2022-11-18T07:26:17;97613.69;;;25.17;47.90
9740;BME280;4909;42.680;26.324;2022-11-18T07:28:44;97595.56;;;25.61;46.11
9740;BME280;4909;42.680;26.324;2022-11-18T07:31:13;97604.25;;;26.01;42.76
9740;BME280;4909;42.680;26.324;2022-11-18T07:33:41;97611.19;;;26.18;43.87
9740;BME280;4909;42.680;26.324;2022-11-18T07:36:10;97596.81;;;25.59;43.03
9740;BME280;4909;42.680;26.324;2022-11-18T07:38:37;97604.06;;;25.29;44.23
9740;BME280;4909;42.680;26.324;2022-11-18T07:41:04;97597.38;;;24.56;46.42
9740;BME280;4909;42.680;26.324;2022-11-18T07:43:32;97593.59;;;24.43;46.77
9740;BME280;4909;42.680;26.324;2022-11-18T07:46:08;97594.00;;;25.15;44.77
9740;BME280;4909;42.680;26.324;2022-11-18T07:48:36;97590.94;;;25.32;43.96
9740;BME280;4909;42.680;26.324;2022-11-18T07:51:03;97588.19;;;25.70;43.92
9740;BME280;4909;42.680;26.324;2022-11-18T07:53:30;97598.69;;;26.59;42.19
9740;BME280;4909;42.680;26.324;2022-11-18T07:55:56;97590.31;;;27.03;41.68
9740;BME280;4909;42.680;26.324;2022-11-18T07:58:23;97599.44;;;27.73;40.12
9740;BME280;4909;42.680;26.324;2022-11-18T08:00:50;97594.56;;;28.02;39.62
9740;BME280;4909;42.680;26.324;2022-11-18T08:03:17;97584.06;;;27.65;40.41
9740;BME280;4909;42.680;26.324;2022-11-18T08:05:45;97585.22;;;27.84;40.09
9740;BME280;4909;42.680;26.324;2022-11-18T08:08:12;97611.53;;;27.98;39.31
9740;BME280;4909;42.680;26.324;2022-11-18T08:10:39;97588.78;;;27.84;39.60
9740;BME280;4909;42.680;26.324;2022-11-18T08:13:06;97588.00;;;27.56;40.37
9740;BME280;4909;42.680;26.324;2022-11-18T08:15:32;97592.59;;;27.28;40.63
9740;BME280;4909;42.680;26.324;2022-11-18T08:17:59;97594.81;;;26.90;40.97
9740;BME280;4909;42.680;26.324;2022-11-18T08:20:26;97586.72;;;26.96;41.46
9740;BME280;4909;42.680;26.324;2022-11-18T08:22:54;97568.03;;;26.51;42.35
9740;BME280;4909;42.680;26.324;2022-11-18T08:25:21;97598.16;;;26.13;44.24
9740;BME280;4909;42.680;26.324;2022-11-18T08:27:48;97596.00;;;26.45;43.04
9740;BME280;4909;42.680;26.324;2022-11-18T08:30:14;97594.41;;;26.71;42.19
9740;BME280;4909;42.680;26.324;2022-11-18T08:32:41;97588.09;;;27.13;40.98
9740;BME280;4909;42.680;26.324;2022-11-18T08:35:08;97588.00;;;27.56;39.92
9740;BME280;4909;42.680;26.324;2022-11-18T08:37:35;97591.16;;;27.32;39.85
9740;BME280;4909;42.680;26.324;2022-11-18T08:40:04;97592.84;;;27.60;39.92
9740;BME280;4909;42.680;26.324;2022-11-18T08:42:31;97598.88;;;27.49;40.33
9740;BME280;4909;42.680;26.324;2022-11-18T08:44:57;97594.16;;;27.71;40.14
9740;BME280;4909;42.680;26.324;2022-11-18T08:47:24;97596.50;;;27.46;40.66
9740;BME280;4909;42.680;26.324;2022-11-18T08:49:51;97592.44;;;27.08;41.23
9740;BME280;4909;42.680;26.324;2022-11-18T08:52:18;97589.66;;;26.59;42.33
9740;BME280;4909;42.680;26.324;2022-11-18T08:54:44;97585.50;;;26.06;43.12
9740;BME280;4909;42.680;26.324;2022-11-18T08:57:12;97601.06;;;25.53;44.25
9740;BME280;4909;42.680;26.324;2022-11-18T08:59:39;97597.88;;;25.20;45.64
9740;BME280;4909;42.680;26.324;2022-11-18T09:02:12;97596.41;;;24.95;46.44
9740;BME280;4909;42.680;26.324;2022-11-18T09:04:39;97599.00;;;24.12;47.42
9740;BME280;4909;42.680;26.324;2022-11-18T09:07:06;97603.88;;;23.86;48.47
9740;BME280;4909;42.680;26.324;2022-11-18T09:09:33;97598.66;;;23.05;50.38
9740;BME280;4909;42.680;26.324;2022-11-18T09:11:59;97602.38;;;23.12;51.34
9740;BME280;4909;42.680;26.324;2022-11-18T09:14:28;97592.09;;;22.83;53.14
9740;BME280;4909;42.680;26.324;2022-11-18T09:16:54;97600.06;;;22.84;52.17
9740;BME280;4909;42.680;26.324;2022-11-18T09:19:21;97600.88;;;22.61;53.31
9740;BME280;4909;42.680;26.324;2022-11-18T09:21:48;97597.47;;;22.42;54.73
9740;BME280;4909;42.680;26.324;2022-11-18T09:24:15;97602.84;;;22.26;55.56
9740;BME280;4909;42.680;26.324;2022-11-18T09:26:42;97598.91;;;22.13;56.37
9740;BME280;4909;42.680;26.324;2022-11-18T09:29:08;97600.59;;;21.97;57.11
9740;BME280;4909;42.680;26.324;2022-11-18T09:31:37;97596.72;;;21.66;58.05
9740;BME280;4909;42.680;26.324;2022-11-18T09:34:04;97592.66;;;21.62;58.75
9740;BME280;4909;42.680;26.324;2022-11-18T09:36:30;97574.91;;;21.25;59.99
9740;BME280;4909;42.680;26.324;2022-11-18T09:38:58;97574.03;;;21.17;60.84
9740;BME280;4909;42.680;26.324;2022-11-18T09:41:43;97564.81;;;21.02;61.47
9740;BME280;4909;42.680;26.324;2022-11-18T09:44:18;97560.66;;;20.81;62.29
9740;BME280;4909;42.680;26.324;2022-11-18T09:46:58;97558.34;;;20.69;62.81
9740;BME280;4909;42.680;26.324;2022-11-18T09:49:30;97541.56;;;20.31;64.28
9740;BME280;4909;42.680;26.324;2022-11-18T09:52:01;97551.16;;;20.16;65.29
9740;BME280;4909;42.680;26.324;2022-11-18T09:54:32;97560.75;;;20.01;66.22
9740;BME280;4909;42.680;26.324;2022-11-18T09:56:59;97559.81;;;19.75;68.18
9740;BME280;4909;42.680;26.324;2022-11-18T09:59:29;97555.88;;;19.69;67.99
9740;BME280;4909;42.680;26.324;2022-11-18T10:02:07;97559.09;;;19.73;68.74
9740;BME280;4909;42.680;26.324;2022-11-18T10:04:41;97558.00;;;19.66;69.29
9740;BME280;4909;42.680;26.324;2022-11-18T10:07:14;97541.03;;;19.28;69.99
9740;BME280;4909;42.680;26.324;2022-11-18T10:09:45;97544.22;;;19.51;70.32
9740;BME280;4909;42.680;26.324;2022-11-18T10:12:21;97539.41;;;19.55;70.50
9740;BME280;4909;42.680;26.324;2022-11-18T10:15:02;97526.09;;;19.71;68.88
9740;BME280;4909;42.680;26.324;2022-11-18T10:17:45;97532.44;;;19.79;69.05
9740;BME280;4909;42.680;26.324;2022-11-18T10:20:22;97518.41;;;19.76;69.07
9740;BME280;4909;42.680;26.324;2022-11-18T10:22:55;97518.44;;;19.93;68.42
9740;BME280;4909;42.680;26.324;2022-11-18T10:25:24;97518.44;;;19.93;69.54
9740;BME280;4909;42.680;26.324;2022-11-18T10:27:51;97516.66;;;20.02;68.75
9740;BME280;4909;42.680;26.324;2022-11-18T10:30:19;97507.44;;;19.87;68.55
9740;BME280;4909;42.680;26.324;2022-11-18T10:32:55;97514.19;;;19.73;69.48
9740;BME280;4909;42.680;26.324;2022-11-18T10:35:26;97518.25;;;19.60;70.45
9740;BME280;4909;42.680;26.324;2022-11-18T10:37:59;97516.50;;;19.41;71.14
9740;BME280;4909;42.680;26.324;2022-11-18T10:40:28;97518.59;;;19.20;72.28
9740;BME280;4909;42.680;26.324;2022-11-18T10:42:55;97504.59;;;19.16;73.33
9740;BME280;4909;42.680;26.324;2022-11-18T10:45:25;97514.72;;;19.22;72.75
9740;BME280;4909;42.680;26.324;2022-11-18T10:48:07;97513.25;;;19.10;73.99
9740;BME280;4909;42.680;26.324;2022-11-18T10:50:35;97520.81;;;18.97;74.67
9740;BME280;4909;42.680;26.324;2022-11-18T10:53:02;97487.59;;;18.79;75.38
9740;BME280;4909;42.680;26.324;2022-11-18T10:55:30;97506.88;;;19.11;74.58
9740;BME280;4909;42.680;26.324;2022-11-18T10:58:00;97504.38;;;19.27;74.36
9740;BME280;4909;42.680;26.324;2022-11-18T11:00:37;97496.56;;;19.06;74.56
9740;BME280;4909;42.680;26.324;2022-11-18T11:03:32;97493.53;;;18.92;75.08
9740;BME280;4909;42.680;26.324;2022-11-18T11:06:20;97488.22;;;18.73;76.81
9740;BME280;4909;42.680;26.324;2022-11-18T11:08:49;97480.72;;;18.66;77.73
9740;BME280;4909;42.680;26.324;2022-11-18T11:11:22;97454.72;;;18.67;76.30
9740;BME280;4909;42.680;26.324;2022-11-18T11:14:16;97472.06;;;18.82;76.12
9740;BME280;4909;42.680;26.324;2022-11-18T11:16:50;97469.97;;;18.66;77.72
9740;BME280;4909;42.680;26.324;2022-11-18T11:19:22;97460.69;;;18.42;79.02
9740;BME280;4909;42.680;26.324;2022-11-18T11:21:50;97468.16;;;18.48;79.44
9740;BME280;4909;42.680;26.324;2022-11-18T11:24:26;97463.19;;;18.72;77.63
9740;BME280;4909;42.680;26.324;2022-11-18T11:27:02;97460.25;;;18.56;78.57
9740;BME280;4909;42.680;26.324;2022-11-18T11:29:42;97466.50;;;18.84;77.10
9740;BME280;4909;42.680;26.324;2022-11-18T11:32:17;97459.06;;;18.78;77.29
9740;BME280;4909;42.680;26.324;2022-11-18T11:34:50;97441.31;;;18.85;77.83
9740;BME280;4909;42.680;26.324;2022-11-18T11:37:29;97437.38;;;18.79;78.01
9740;BME280;4909;42.680;26.324;2022-11-18T11:40:15;97421.19;;;18.52;79.49
9740;BME280;4909;42.680;26.324;2022-11-18T11:42:52;97431.63;;;18.64;78.61
9740;BME280;4909;42.680;26.324;2022-11-18T11:45:31;97422.50;;;18.57;79.09
9740;BME280;4909;42.680;26.324;2022-11-18T11:48:12;97422.69;;;18.74;79.36
9740;BME280;4909;42.680;26.324;2022-11-18T11:50:47;97404.50;;;18.67;79.72
9740;BME280;4909;42.680;26.324;2022-11-18T11:53:40;97416.59;;;18.81;78.95
9740;BME280;4909;42.680;26.324;2022-11-18T11:56:16;97416.44;;;18.83;79.17
9740;BME280;4909;42.680;26.324;2022-11-18T11:59:03;97404.28;;;19.06;78.05
9740;BME280;4909;42.680;26.324;2022-11-18T12:01:36;97399.59;;;19.08;77.88
9740;BME280;4909;42.680;26.324;2022-11-18T12:04:20;97398.13;;;19.14;78.29
9740;BME280;4909;42.680;26.324;2022-11-18T12:06:52;97395.50;;;19.04;78.77
9740;BME280;4909;42.680;26.324;2022-11-18T12:09:27;97394.06;;;19.09;79.04
9740;BME280;4909;42.680;26.324;2022-11-18T12:12:03;97398.38;;;19.02;79.42
9740;BME280;4909;42.680;26.324;2022-11-18T12:14:56;97407.09;;;18.87;80.83
9740;BME280;4909;42.680;26.324;2022-11-18T12:17:27;97399.16;;;18.85;80.82
9740;BME280;4909;42.680;26.324;2022-11-18T12:19:57;97408.78;;;18.88;80.11
9740;BME280;4909;42.680;26.324;2022-11-18T12:25:56;97398.38;;;18.75;80.81
9740;BME280;4909;42.680;26.324;2022-11-18T12:28:25;97387.88;;;18.82;80.77
9740;BME280;4909;42.680;26.324;2022-11-18T12:33:57;97390.91;;;18.96;79.72
9740;BME280;4909;42.680;26.324;2022-11-18T12:36:26;97353.78;;;18.82;79.80
9740;BME280;4909;42.680;26.324;2022-11-18T12:38:55;97375.69;;;18.87;80.20
9740;BME280;4909;42.680;26.324;2022-11-18T12:41:53;97391.28;;;19.01;79.75
9740;BME280;4909;42.680;26.324;2022-11-18T12:44:38;97354.22;;;18.78;80.05
9740;BME280;4909;42.680;26.324;2022-11-18T12:47:05;97377.19;;;18.90;80.22
9740;BME280;4909;42.680;26.324;2022-11-18T12:50:05;97386.38;;;18.97;80.37
9740;BME280;4909;42.680;26.324;2022-11-18T12:52:46;97374.00;;;19.04;79.82
9740;BME280;4909;42.680;26.324;2022-11-18T12:55:18;97364.03;;;19.14;79.64
9740;BME280;4909;42.680;26.324;2022-11-18T12:57:46;97368.94;;;19.19;79.15
9740;BME280;4909;42.680;26.324;2022-11-18T13:00:26;97369.19;;;19.25;78.29
9740;BME280;4909;42.680;26.324;2022-11-18T13:02:54;97365.41;;;19.18;78.52
9740;BME280;4909;42.680;26.324;2022-11-18T13:05:22;97359.94;;;19.10;79.18
9740;BME280;4909;42.680;26.324;2022-11-18T13:07:51;97358.56;;;19.06;80.12
9740;BME280;4909;42.680;26.324;2022-11-18T13:10:44;97345.13;;;18.79;81.46
9740;BME280;4909;42.680;26.324;2022-11-18T13:13:21;97351.94;;;19.00;80.75
9740;BME280;4909;42.680;26.324;2022-11-18T13:15:48;97343.41;;;18.87;81.14
9740;BME280;4909;42.680;26.324;2022-11-18T13:18:33;97335.03;;;18.90;81.04
9740;BME280;4909;42.680;26.324;2022-11-18T13:21:00;97335.28;;;18.70;82.22
9740;BME280;4909;42.680;26.324;2022-11-18T13:23:47;97327.38;;;18.95;80.91
9740;BME280;4909;42.680;26.324;2022-11-18T13:26:21;97303.41;;;19.02;80.20
9740;BME280;4909;42.680;26.324;2022-11-18T13:29:05;97314.75;;;19.14;80.25
9740;BME280;4909;42.680;26.324;2022-11-18T13:31:43;97313.56;;;19.26;79.16
9740;BME280;4909;42.680;26.324;2022-11-18T13:34:16;97326.38;;;19.32;78.47
9740;BME280;4909;42.680;26.324;2022-11-18T13:36:46;97320.59;;;19.27;78.55
9740;BME280;4909;42.680;26.324;2022-11-18T13:39:18;97317.78;;;19.10;79.40